SondeTracker

Meteorological Radiosondes Database

Operations

Sounding was ended - last measurement: 2022-12-06 01:15:09z

MAP
About Radiosonde

Number: D22036624 (22036624)

Launch Site: Alabaster [AL] (US)

Type: DFM17

AUX: NO

Frequency: 405.610 MHz

Max Speed: 194 km/h at 32164 m

Average Speed: 107.78 km/h

Max Altitude: 32875 m

Average Ascent Speed: 5.14 m/s

Average Descent Speed: 17.56 m/s

Status: UNKNOWN

Status Changes
Launch Site Type AUX Frequency Status Finder Landing Point Description Changes made by
APRS Statistics

Received Frames: 108

First Frame [UTC]: 2022-12-05 23:05:53z

Last Frame [UTC]: 2022-12-06 01:15:09z

Receivers: N4XWC-2

Flight Time: 02:09:16 h

Distance From First Measurement: 226.84 km

Nearest City: Thomaston [GA] (US) [3.98 km]

Nearest Hunter: wildfish [93.12 km]

Ground Altitude: 183 m

Distance from QTH: 0.00 km

APRS Data
Receiver Number Date/Time [UTC] φ λ Course [°] Speed [km/h] Altitude [m] Description
N4XWC-2D220366242022-12-06 01:15:0932.8917-84.3698102895948Clb=-9.7m/s t=-12.9C h=-1.0% p=-1.0hPa 405.610 MHz Type=DFM17 ser=22036624 Radiosonde
N4XWC-2D220366242022-12-06 01:14:1032.8953-84.3831112966502Clb=-10.6m/s t=-16.9C h=-1.0% p=-1.0hPa 405.610 MHz Type=DFM17 ser=22036624 Radiosonde
N4XWC-2D220366242022-12-06 01:13:0932.9035-84.405123917365Clb=-10.7m/s t=-23.5C h=-1.0% p=-1.0hPa 405.610 MHz Type=DFM17 ser=22036624 Radiosonde
N4XWC-2D220366242022-12-06 01:12:0832.9105-84.42113937991Clb=-10.1m/s t=-273.0C h=-1.0% p=-1.0hPa 405.610 MHz Type=DFM17 ser=22036624 Radiosonde
N4XWC-2D220366242022-12-06 01:11:0632.9137-84.429113948337Clb=-9.9m/s t=-29.9C h=-1.0% p=-1.0hPa 405.610 MHz Type=DFM17 ser=22036624 Radiosonde
N4XWC-2D220366242022-12-06 01:10:0532.9186-84.4451107988919Clb=-10.7m/s t=-34.9C h=-1.0% p=-1.0hPa 405.610 MHz Type=DFM17 ser=22036624 Radiosonde
N4XWC-2D220366242022-12-06 01:09:0332.9242-84.46791051199755Clb=-11.9m/s t=-41.7C h=-1.0% p=-1.0hPa 405.610 MHz Type=DFM17 ser=22036624 Radiosonde
N4XWC-2D220366242022-12-06 01:07:5832.9287-84.486110814310324Clb=-12.2m/s t=-44.5C h=-1.0% p=-1.0hPa 405.610 MHz Type=DFM17 ser=22036624 Radiosonde
N4XWC-2D220366242022-12-06 01:06:5732.9355-84.510510613711108Clb=-13.3m/s t=-50.5C h=-1.0% p=-1.0hPa 405.610 MHz Type=DFM17 ser=22036624 Radiosonde
N4XWC-2D220366242022-12-06 01:06:4132.9415-84.535410514611942Clb=-13.5m/s t=-56.3C h=-1.0% p=-1.0hPa 405.610 MHz Type=DFM17 ser=22036624 Radiosonde
N4XWC-2D220366242022-12-06 01:06:1632.9469-84.561410215412802Clb=-14.6m/s t=-61.8C h=-1.0% p=-1.0hPa 405.610 MHz Type=DFM17 ser=22036624 Radiosonde
N4XWC-2D220366242022-12-06 01:05:5532.95-84.58989916913696Clb=-15.0m/s t=-67.2C h=-1.0% p=-1.0hPa 405.610 MHz Type=DFM17 ser=22036624 Radiosonde
N4XWC-2D220366242022-12-06 01:05:4432.9563-84.617710415614654Clb=-15.0m/s t=-66.7C h=-1.0% p=-1.0hPa 405.610 MHz Type=DFM17 ser=22036624 Radiosonde
N4XWC-2D220366242022-12-06 01:05:0032.9641-84.644511614615651Clb=-17.3m/s t=-70.5C h=-1.0% p=-1.0hPa 405.610 MHz Type=DFM17 ser=22036624 Radiosonde
N4XWC-2D220366242022-12-06 01:04:4332.9714-84.666811310216775Clb=-18.3m/s t=-70.4C h=-1.0% p=-1.0hPa 405.610 MHz Type=DFM17 ser=22036624 Radiosonde
N4XWC-2D220366242022-12-06 01:03:2032.9788-84.68331209117889Clb=-18.9m/s t=-70.9C h=-1.0% p=-1.0hPa 405.610 MHz Type=DFM17 ser=22036624 Radiosonde
N4XWC-2D220366242022-12-06 01:02:0232.9829-84.70031139419065Clb=-20.0m/s t=-69.6C h=-1.0% p=-1.0hPa 405.610 MHz Type=DFM17 ser=22036624 Radiosonde
N4XWC-2D220366242022-12-06 01:00:3432.9847-84.7115895020330Clb=-22.2m/s t=-64.9C h=-1.0% p=-1.0hPa 405.610 MHz Type=DFM17 ser=22036624 Radiosonde
N4XWC-2D220366242022-12-06 00:59:0832.9867-84.71741204121785Clb=-23.9m/s t=-66.0C h=-1.0% p=-1.0hPa 405.610 MHz Type=DFM17 ser=22036624 Radiosonde
N4XWC-2D220366242022-12-06 00:57:4332.988-84.72471063323198Clb=-23.1m/s t=-59.0C h=-1.0% p=-1.0hPa 405.610 MHz Type=DFM17 ser=22036624 Radiosonde
N4XWC-2D220366242022-12-06 00:56:1332.9888-84.7349996924540Clb=-19.3m/s t=-56.6C h=-1.0% p=-1.0hPa 405.610 MHz Type=DFM17 ser=22036624 Radiosonde
N4XWC-2D220366242022-12-06 00:54:4232.9899-84.7482887225996Clb=-23.2m/s t=-53.2C h=-1.0% p=-1.0hPa 405.610 MHz Type=DFM17 ser=22036624 Radiosonde
N4XWC-2D220366242022-12-06 00:53:0932.988-84.762699627500Clb=-24.9m/s t=-51.8C h=-1.0% p=-1.0hPa 405.610 MHz Type=DFM17 ser=22036624 Radiosonde
N4XWC-2D220366242022-12-06 00:51:4132.9852-84.79029011729585Clb=-31.3m/s t=-48.3C h=-1.0% p=-1.0hPa 405.610 MHz Type=DFM17 ser=22036624 Radiosonde
N4XWC-2D220366242022-12-06 00:50:4032.9832-84.80897313330852Clb=-26.5m/s t=-45.9C h=-1.0% p=-1.0hPa 405.610 MHz Type=DFM17 ser=22036624 Radiosonde
N4XWC-2D220366242022-12-06 00:49:3632.9795-84.98198614132875Clb=4.1m/s t=-43.4C h=-1.0% p=-1.0hPa 405.610 MHz Type=DFM17 ser=22036624 Radiosonde
N4XWC-2D220366242022-12-06 00:49:3232.9777-85.01448514632511Clb=3.1m/s t=-44.9C h=-1.0% p=-1.0hPa 405.610 MHz Type=DFM17 ser=22036624 Radiosonde
N4XWC-2D220366242022-12-06 00:49:2832.9772-85.04448719432164Clb=1.0m/s t=-46.7C h=-1.0% p=-1.0hPa 405.610 MHz Type=DFM17 ser=22036624 Radiosonde
N4XWC-2D220366242022-12-06 00:48:0332.9771-85.07169315031832Clb=5.7m/s t=-45.9C h=-1.0% p=-1.0hPa 405.610 MHz Type=DFM17 ser=22036624 Radiosonde
N4XWC-2D220366242022-12-06 00:46:1232.9752-85.10167115431447Clb=7.8m/s t=-44.8C h=-1.0% p=-1.0hPa 405.610 MHz Type=DFM17 ser=22036624 Radiosonde
N4XWC-2D220366242022-12-06 00:44:2432.9713-85.12828314331064Clb=7.8m/s t=-47.8C h=-1.0% p=-1.0hPa 405.610 MHz Type=DFM17 ser=22036624 Radiosonde
N4XWC-2D220366242022-12-06 00:42:3332.9672-85.15438617230628Clb=8.5m/s t=-47.3C h=-1.0% p=-1.0hPa 405.610 MHz Type=DFM17 ser=22036624 Radiosonde
N4XWC-2D220366242022-12-06 00:40:3632.9645-85.18247814330222Clb=4.5m/s t=-48.2C h=-1.0% p=-1.0hPa 405.610 MHz Type=DFM17 ser=22036624 Radiosonde
N4XWC-2D220366242022-12-06 00:38:4632.9621-85.20788613129898Clb=4.6m/s t=-49.8C h=-1.0% p=-1.0hPa 405.610 MHz Type=DFM17 ser=22036624 Radiosonde
N4XWC-2D220366242022-12-06 00:36:4632.9609-85.22928411329595Clb=4.8m/s t=-49.4C h=-1.0% p=-1.0hPa 405.610 MHz Type=DFM17 ser=22036624 Radiosonde
N4XWC-2D220366242022-12-06 00:35:2932.9591-85.25377813529234Clb=8.0m/s t=-50.1C h=-1.0% p=-1.0hPa 405.610 MHz Type=DFM17 ser=22036624 Radiosonde
N4XWC-2D220366242022-12-06 00:34:2632.9558-85.27627811328803Clb=6.8m/s t=-49.9C h=-1.0% p=-1.0hPa 405.610 MHz Type=DFM17 ser=22036624 Radiosonde
N4XWC-2D220366242022-12-06 00:33:2332.9516-85.29916413328371Clb=6.3m/s t=-48.4C h=-1.0% p=-1.0hPa 405.610 MHz Type=DFM17 ser=22036624 Radiosonde
N4XWC-2D220366242022-12-06 00:31:2632.9436-85.4413865925070Clb=6.3m/s t=-57.5C h=-1.0% p=-1.0hPa 405.610 MHz Type=DFM17 ser=22036624 Radiosonde
N4XWC-2D220366242022-12-06 00:29:3232.9457-85.4603937224537Clb=4.6m/s t=-57.9C h=-1.0% p=-1.0hPa 405.610 MHz Type=DFM17 ser=22036624 Radiosonde
N4XWC-2D220366242022-12-06 00:27:3932.9457-85.4666916724377Clb=3.9m/s t=-58.6C h=-1.0% p=-1.0hPa 405.610 MHz Type=DFM17 ser=22036624 Radiosonde
N4XWC-2D220366242022-12-06 00:25:4032.9457-85.4796806523975Clb=7.4m/s t=-59.9C h=-1.0% p=-1.0hPa 405.610 MHz Type=DFM17 ser=22036624 Radiosonde
N4XWC-2D220366242022-12-06 00:23:4332.9455-85.4883843923619Clb=4.9m/s t=-58.7C h=-1.0% p=-1.0hPa 405.610 MHz Type=DFM17 ser=22036624 Radiosonde
N4XWC-2D220366242022-12-06 00:21:4732.9438-85.4993863722945Clb=6.2m/s t=-58.0C h=-1.0% p=-1.0hPa 405.610 MHz Type=DFM17 ser=22036624 Radiosonde
N4XWC-2D220366242022-12-06 00:19:5132.9433-85.5018553122785Clb=7.3m/s t=-57.6C h=-1.0% p=-1.0hPa 405.610 MHz Type=DFM17 ser=22036624 Radiosonde
N4XWC-2D220366242022-12-06 00:18:0032.9422-85.5068651722465Clb=5.6m/s t=-59.2C h=-1.0% p=-1.0hPa 405.610 MHz Type=DFM17 ser=22036624 Radiosonde
N4XWC-2D220366242022-12-06 00:14:2632.9591-85.53931285721318Clb=6.6m/s t=-65.7C h=-1.0% p=-1.0hPa 405.610 MHz Type=DFM17 ser=22036624 Radiosonde
N4XWC-2D220366242022-12-06 00:13:2232.9594-85.5596733920671Clb=4.9m/s t=-67.6C h=-1.0% p=-1.0hPa 405.610 MHz Type=DFM17 ser=22036624 Radiosonde
N4XWC-2D220366242022-12-06 00:12:5932.9604-85.56651146320458Clb=4.0m/s t=-69.3C h=-1.0% p=-1.0hPa 405.610 MHz Type=DFM17 ser=22036624 Radiosonde
N4XWC-2D220366242022-12-06 00:07:1832.9714-85.616110310018986Clb=5.1m/s t=-71.7C h=-1.0% p=-1.0hPa 405.610 MHz Type=DFM17 ser=22036624 Radiosonde
N4XWC-2D220366242022-12-06 00:05:2932.9725-85.62121068718899Clb=4.2m/s t=-72.0C h=-1.0% p=-1.0hPa 405.610 MHz Type=DFM17 ser=22036624 Radiosonde
N4XWC-2D220366242022-12-06 00:03:5132.9768-85.639210010918629Clb=4.2m/s t=-71.3C h=-1.0% p=-1.0hPa 405.610 MHz Type=DFM17 ser=22036624 Radiosonde
N4XWC-2D220366242022-12-06 00:02:5032.9791-85.6589810218333Clb=5.2m/s t=-69.2C h=-1.0% p=-1.0hPa 405.610 MHz Type=DFM17 ser=22036624 Radiosonde
N4XWC-2D220366242022-12-06 00:01:4932.9813-85.67521049318006Clb=4.7m/s t=-69.8C h=-1.0% p=-1.0hPa 405.610 MHz Type=DFM17 ser=22036624 Radiosonde
N4XWC-2D220366242022-12-06 00:00:4932.9977-85.710611812417430Clb=5.6m/s t=-54.0C h=-1.0% p=-1.0hPa 405.610 MHz Type=DFM17 ser=22036624 Radiosonde
N4XWC-2D220366242022-12-06 00:00:3433.0056-85.729410912217146Clb=3.5m/s t=-70.8C h=-1.0% p=-1.0hPa 405.610 MHz Type=DFM17 ser=22036624 Radiosonde
N4XWC-2D220366242022-12-06 00:00:1333.0105-85.75019712216846Clb=4.6m/s t=-71.1C h=-1.0% p=-1.0hPa 405.610 MHz Type=DFM17 ser=22036624 Radiosonde
N4XWC-2D220366242022-12-05 23:58:2133.0153-85.770710311516537Clb=4.5m/s t=-70.1C h=-1.0% p=-1.0hPa 405.610 MHz Type=DFM17 ser=22036624 Radiosonde
N4XWC-2D220366242022-12-05 23:56:3233.0194-85.794410112416224Clb=5.4m/s t=-71.3C h=-1.0% p=-1.0hPa 405.610 MHz Type=DFM17 ser=22036624 Radiosonde
N4XWC-2D220366242022-12-05 23:56:0033.0251-85.816411013015940Clb=4.5m/s t=-70.0C h=-1.0% p=-1.0hPa 405.610 MHz Type=DFM17 ser=22036624 Radiosonde
N4XWC-2D220366242022-12-05 23:54:4533.0323-85.840910715215655Clb=4.8m/s t=-70.3C h=-1.0% p=-1.0hPa 405.610 MHz Type=DFM17 ser=22036624 Radiosonde
N4XWC-2D220366242022-12-05 23:53:0633.0397-85.86810815615370Clb=3.9m/s t=-69.2C h=-1.0% p=-1.0hPa 405.610 MHz Type=DFM17 ser=22036624 Radiosonde
N4XWC-2D220366242022-12-05 23:51:3833.0465-85.895410715715065Clb=5.2m/s t=-68.1C h=-1.0% p=-1.0hPa 405.610 MHz Type=DFM17 ser=22036624 Radiosonde
N4XWC-2D220366242022-12-05 23:51:1533.0514-85.923710215714693Clb=7.3m/s t=-66.9C h=-1.0% p=-1.0hPa 405.610 MHz Type=DFM17 ser=22036624 Radiosonde
N4XWC-2D220366242022-12-05 23:50:3333.0557-85.95110214114401Clb=3.5m/s t=-66.4C h=-1.0% p=-1.0hPa 405.610 MHz Type=DFM17 ser=22036624 Radiosonde
N4XWC-2D220366242022-12-05 23:48:5533.0615-85.976511015414129Clb=4.0m/s t=-67.2C h=-1.0% p=-1.0hPa 405.610 MHz Type=DFM17 ser=22036624 Radiosonde
N4XWC-2D220366242022-12-05 23:47:3433.069-86.005910117413874Clb=3.6m/s t=-68.1C h=-1.0% p=-1.0hPa 405.610 MHz Type=DFM17 ser=22036624 Radiosonde
N4XWC-2D220366242022-12-05 23:46:4933.0732-86.03719417213597Clb=5.9m/s t=-66.6C h=-1.0% p=-1.0hPa 405.610 MHz Type=DFM17 ser=22036624 Radiosonde
N4XWC-2D220366242022-12-05 23:46:2133.0756-86.06629616113320Clb=5.7m/s t=-64.7C h=-1.0% p=-1.0hPa 405.610 MHz Type=DFM17 ser=22036624 Radiosonde
N4XWC-2D220366242022-12-05 23:44:4533.0793-86.093610215613045Clb=5.4m/s t=-63.9C h=-1.0% p=-1.0hPa 405.610 MHz Type=DFM17 ser=22036624 Radiosonde
N4XWC-2D220366242022-12-05 23:43:3033.085-86.121910416712753Clb=3.5m/s t=-61.9C h=-1.0% p=-1.0hPa 405.610 MHz Type=DFM17 ser=22036624 Radiosonde
N4XWC-2D220366242022-12-05 23:42:2933.0911-86.148710714312459Clb=4.8m/s t=-60.1C h=-1.0% p=-1.0hPa 405.610 MHz Type=DFM17 ser=22036624 Radiosonde
N4XWC-2D220366242022-12-05 23:42:0833.0975-86.174610514812170Clb=4.2m/s t=-58.0C h=-1.0% p=-1.0hPa 405.610 MHz Type=DFM17 ser=22036624 Radiosonde
N4XWC-2D220366242022-12-05 23:40:3733.1038-86.201810414811878Clb=4.9m/s t=-56.1C h=-1.0% p=-1.0hPa 405.610 MHz Type=DFM17 ser=22036624 Radiosonde
N4XWC-2D220366242022-12-05 23:39:2633.1096-86.227310614311598Clb=3.6m/s t=-54.1C h=-1.0% p=-1.0hPa 405.610 MHz Type=DFM17 ser=22036624 Radiosonde
N4XWC-2D220366242022-12-05 23:38:2533.1147-86.25210414111313Clb=6.0m/s t=-51.8C h=-1.0% p=-1.0hPa 405.610 MHz Type=DFM17 ser=22036624 Radiosonde
N4XWC-2D220366242022-12-05 23:37:5633.12-86.277610513711036Clb=4.8m/s t=-49.6C h=-1.0% p=-1.0hPa 405.610 MHz Type=DFM17 ser=22036624 Radiosonde
N4XWC-2D220366242022-12-05 23:36:3233.126-86.303410414410753Clb=3.8m/s t=-47.5C h=-1.0% p=-1.0hPa 405.610 MHz Type=DFM17 ser=22036624 Radiosonde
N4XWC-2D220366242022-12-05 23:35:2233.1318-86.328310514610480Clb=4.6m/s t=-45.3C h=-1.0% p=-1.0hPa 405.610 MHz Type=DFM17 ser=22036624 Radiosonde
N4XWC-2D220366242022-12-05 23:34:2133.1368-86.35459815010204Clb=7.9m/s t=-44.8C h=-1.0% p=-1.0hPa 405.610 MHz Type=DFM17 ser=22036624 Radiosonde
N4XWC-2D220366242022-12-05 23:33:3733.1401-86.3781951229897Clb=6.9m/s t=-42.6C h=-1.0% p=-1.0hPa 405.610 MHz Type=DFM17 ser=22036624 Radiosonde
N4XWC-2D220366242022-12-05 23:32:2433.1427-86.39941041139593Clb=4.5m/s t=-40.0C h=-1.0% p=-1.0hPa 405.610 MHz Type=DFM17 ser=22036624 Radiosonde
N4XWC-2D220366242022-12-05 23:31:1833.1445-86.4187971009294Clb=4.1m/s t=-37.8C h=-1.0% p=-1.0hPa 405.610 MHz Type=DFM17 ser=22036624 Radiosonde
N4XWC-2D220366242022-12-05 23:30:1633.147-86.43697949021Clb=5.4m/s t=-35.6C h=-1.0% p=-1.0hPa 405.610 MHz Type=DFM17 ser=22036624 Radiosonde
N4XWC-2D220366242022-12-05 23:29:1633.1501-86.452107938744Clb=4.6m/s t=-33.3C h=-1.0% p=-1.0hPa 405.610 MHz Type=DFM17 ser=22036624 Radiosonde
N4XWC-2D220366242022-12-05 23:28:1733.154-86.4677107948477Clb=4.5m/s t=-31.1C h=-1.0% p=-1.0hPa 405.610 MHz Type=DFM17 ser=22036624 Radiosonde
N4XWC-2D220366242022-12-05 23:27:1333.159-86.4836110938226Clb=4.9m/s t=-29.0C h=-1.0% p=-1.0hPa 405.610 MHz Type=DFM17 ser=22036624 Radiosonde
N4XWC-2D220366242022-12-05 23:26:1233.1647-86.5011111047958Clb=4.2m/s t=-26.9C h=-1.0% p=-1.0hPa 405.610 MHz Type=DFM17 ser=22036624 Radiosonde
N4XWC-2D220366242022-12-05 23:25:1133.1693-86.5183104987653Clb=4.8m/s t=-24.8C h=-1.0% p=-1.0hPa 405.610 MHz Type=DFM17 ser=22036624 Radiosonde
N4XWC-2D220366242022-12-05 23:24:1133.1741-86.53471171027302Clb=4.2m/s t=-22.8C h=-1.0% p=-1.0hPa 405.610 MHz Type=DFM17 ser=22036624 Radiosonde
N4XWC-2D220366242022-12-05 23:23:0933.18-86.55081121006970Clb=5.2m/s t=-20.6C h=-1.0% p=-1.0hPa 405.610 MHz Type=DFM17 ser=22036624 Radiosonde
N4XWC-2D220366242022-12-05 23:22:0833.184-86.56697806600Clb=5.0m/s t=-18.3C h=-1.0% p=-1.0hPa 405.610 MHz Type=DFM17 ser=22036624 Radiosonde
N4XWC-2D220366242022-12-05 23:21:0733.1875-86.5802105746214Clb=5.1m/s t=-15.8C h=-1.0% p=-1.0hPa 405.610 MHz Type=DFM17 ser=22036624 Radiosonde
N4XWC-2D220366242022-12-05 23:20:0633.19-86.5959941005857Clb=5.3m/s t=-13.7C h=-1.0% p=-1.0hPa 405.610 MHz Type=DFM17 ser=22036624 Radiosonde
N4XWC-2D220366242022-12-05 23:19:0533.1929-86.6125104945482Clb=3.9m/s t=-11.3C h=-1.0% p=-1.0hPa 405.610 MHz Type=DFM17 ser=22036624 Radiosonde
N4XWC-2D220366242022-12-05 23:18:0433.1953-86.629198815132Clb=6.6m/s t=-9.3C h=-1.0% p=-1.0hPa 405.610 MHz Type=DFM17 ser=22036624 Radiosonde
N4XWC-2D220366242022-12-05 23:17:0333.1959-86.6473921044730Clb=7.2m/s t=-7.5C h=-1.0% p=-1.0hPa 405.610 MHz Type=DFM17 ser=22036624 Radiosonde
N4XWC-2D220366242022-12-05 23:16:0233.1958-86.6638931004369Clb=6.7m/s t=-4.7C h=-1.0% p=-1.0hPa 405.610 MHz Type=DFM17 ser=22036624 Radiosonde
N4XWC-2D220366242022-12-05 23:15:0133.1954-86.680578893996Clb=7.7m/s t=-1.9C h=-1.0% p=-1.0hPa 405.610 MHz Type=DFM17 ser=22036624 Radiosonde
N4XWC-2D220366242022-12-05 23:14:0033.1955-86.697580703651Clb=5.1m/s t=0.1C h=-1.0% p=-1.0hPa 405.610 MHz Type=DFM17 ser=22036624 Radiosonde
N4XWC-2D220366242022-12-05 23:12:5933.1975-86.7111109783289Clb=8.3m/s t=1.8C h=-1.0% p=-1.0hPa 405.610 MHz Type=DFM17 ser=22036624 Radiosonde
N4XWC-2D220366242022-12-05 23:11:5833.2001-86.723696502957Clb=4.8m/s t=3.3C h=-1.0% p=-1.0hPa 405.610 MHz Type=DFM17 ser=22036624 Radiosonde
N4XWC-2D220366242022-12-05 23:10:5733.2028-86.7343118502614Clb=6.1m/s t=5.3C h=-1.0% p=-1.0hPa 405.610 MHz Type=DFM17 ser=22036624 Radiosonde
N4XWC-2D220366242022-12-05 23:09:5633.2034-86.74264222245Clb=5.5m/s t=5.9C h=-1.0% p=-1.0hPa 405.610 MHz Type=DFM17 ser=22036624 Radiosonde
N4XWC-2D220366242022-12-05 23:08:5433.2015-86.748870541899Clb=7.7m/s t=8.0C h=-1.0% p=-1.0hPa 405.610 MHz Type=DFM17 ser=22036624 Radiosonde
N4XWC-2D220366242022-12-05 23:07:5333.1993-86.758278501534Clb=5.9m/s t=10.6C h=-1.0% p=-1.0hPa 405.610 MHz Type=DFM17 ser=22036624 Radiosonde
N4XWC-2D220366242022-12-05 23:06:5233.1955-86.76862591199Clb=5.5m/s t=13.3C h=-1.0% p=-1.0hPa 405.610 MHz Type=DFM17 ser=22036624 Radiosonde
N4XWC-2D220366242022-12-05 23:05:5333.1912-86.7775754874Clb=5.3m/s t=14.6C h=-1.0% p=-1.0hPa 405.610 MHz Type=DFM17 ser=22036624 Radiosonde